Time;durP1;ratioP1;P1;durP2;ratioP2;P2;SDS_P1;SDS_P2;PMS_P1;PMS_P2;Temp;Humidity;BMP_temperature;BMP_pressure;BME280_temperature;BME280_humidity;BME280_pressure;Samples;Min_cycle;Max_cycle;Signal;HPM_P1;HPM_P2
2022/07/26 00:00:03;;;;;;;543.25;497.77;;;;;;;26.45;58.30;99272.34;345992;28;1234;-80
2022/07/26 00:00:15;;;;;;;541.35;495.83;;;;;;;26.51;58.05;99282.41;346867;28;1432;-80
2022/07/26 00:00:27;;;;;;;536.25;490.80;;;;;;;26.53;57.78;99275.00;344418;28;1663;-81
2022/07/26 00:00:37;;;;;;;534.58;489.05;;;;;;;26.58;57.58;99283.38;343041;28;1684;-81
2022/07/26 00:00:48;;;;;;;535.00;489.30;;;;;;;26.59;57.53;99271.63;344630;28;931;-80
2022/07/26 00:00:58;;;;;;;537.77;492.17;;;;;;;26.63;57.66;99274.81;344369;28;1079;-81
2022/07/26 00:01:08;;;;;;;542.35;496.63;;;;;;;26.56;57.71;99280.03;344060;28;1376;-80
2022/07/26 00:01:20;;;;;;;541.27;495.63;;;;;;;26.47;57.65;99281.06;343514;28;873;-80
2022/07/26 00:01:31;;;;;;;538.33;492.83;;;;;;;26.38;58.16;99276.75;340199;28;1694;-81
2022/07/26 00:01:41;;;;;;;536.28;490.98;;;;;;;26.35;57.79;99285.16;344080;28;1239;-80
2022/07/26 00:01:52;;;;;;;533.00;487.60;;;;;;;26.28;58.02;99278.75;344157;28;1430;-80
2022/07/26 00:02:02;;;;;;;531.17;485.67;;;;;;;26.28;58.37;99281.44;336464;29;1196;-80
2022/07/26 00:02:13;;;;;;;531.30;485.77;;;;;;;26.31;58.38;99278.44;340074;28;1922;-81
2022/07/26 00:02:23;;;;;;;535.33;489.97;;;;;;;26.33;58.27;99276.44;341487;28;1455;-81
2022/07/26 00:02:33;;;;;;;540.00;494.75;;;;;;;26.34;58.04;99283.47;344746;28;1288;-80
2022/07/26 00:02:44;;;;;;;540.97;495.77;;;;;;;26.36;58.31;99284.16;344194;28;1027;-80
2022/07/26 00:02:54;;;;;;;541.35;495.88;;;;;;;26.36;58.35;99284.16;341541;29;1342;-80
2022/07/26 00:03:05;;;;;;;539.03;493.57;;;;;;;26.35;58.02;99282.47;341752;28;1295;-81
2022/07/26 00:03:15;;;;;;;532.03;486.58;;;;;;;26.33;58.00;99284.50;341431;28;1398;-80
2022/07/26 00:03:26;;;;;;;533.23;487.63;;;;;;;26.33;58.15;99279.97;340416;28;1784;-80
2022/07/26 00:03:36;;;;;;;528.00;482.40;;;;;;;26.34;58.03;99281.63;336281;29;1020;-80
2022/07/26 00:03:47;;;;;;;535.30;489.53;;;;;;;26.35;58.26;99282.47;338430;29;1613;-81
2022/07/26 00:03:58;;;;;;;534.92;489.05;;;;;;;26.39;58.16;99289.19;331972;29;1401;-81
2022/07/26 00:04:09;;;;;;;534.05;488.42;;;;;;;26.38;58.00;99287.50;327154;30;1673;-80
2022/07/26 00:04:19;;;;;;;528.35;483.02;;;;;;;26.38;58.06;99290.19;328509;30;1277;-81
2022/07/26 00:04:30;;;;;;;523.57;478.67;;;;;;;26.38;58.01;99282.13;327573;30;1329;-80
2022/07/26 00:04:40;;;;;;;527.85;482.63;;;;;;;26.41;58.16;99276.41;325362;30;1463;-80
2022/07/26 00:04:50;;;;;;;522.77;477.50;;;;;;;26.44;57.69;99287.63;332044;29;1427;-80
2022/07/26 00:05:01;;;;;;;526.55;480.90;;;;;;;26.49;57.92;99281.72;333639;29;1590;-81
2022/07/26 00:05:11;;;;;;;526.87;481.30;;;;;;;26.52;57.69;99286.75;329362;29;1803;-81
2022/07/26 00:05:22;;;;;;;535.10;489.43;;;;;;;26.56;57.77;99285.41;328302;30;1190;-81
2022/07/26 00:05:32;;;;;;;530.17;484.65;;;;;;;26.57;57.48;99281.72;328199;29;2488;-80
2022/07/26 00:05:43;;;;;;;529.30;483.88;;;;;;;26.57;57.41;99284.41;327759;29;2614;-80
2022/07/26 00:05:53;;;;;;;526.97;481.70;;;;;;;26.54;57.78;99282.06;326687;30;2171;-80
2022/07/26 00:06:06;;;;;;;530.47;485.13;;;;;;;26.56;57.49;99282.72;323783;30;1502;-80
2022/07/26 00:06:16;;;;;;;521.33;476.10;;;;;;;26.59;57.24;99286.91;329529;29;1637;-80
2022/07/26 00:06:27;;;;;;;520.20;475.08;;;;;;;26.59;57.55;99285.06;331039;29;2016;-81
2022/07/26 00:06:37;;;;;;;527.63;482.50;;;;;;;26.60;57.56;99275.16;331362;29;1233;-80
2022/07/26 00:06:48;;;;;;;537.63;492.20;;;;;;;26.61;57.58;99283.03;331939;29;1337;-80
2022/07/26 00:06:58;;;;;;;539.40;493.92;;;;;;;26.63;57.38;99283.72;329307;29;1483;-81
2022/07/26 00:07:09;;;;;;;537.53;492.23;;;;;;;26.68;57.28;99283.19;326735;29;1876;-80
2022/07/26 00:07:19;;;;;;;532.40;487.13;;;;;;;26.66;57.00;99283.38;327119;30;811;-81
2022/07/26 00:07:30;;;;;;;523.80;478.97;;;;;;;26.62;57.27;99273.97;326186;30;2285;-81
2022/07/26 00:07:40;;;;;;;508.30;464.00;;;;;;;26.60;57.08;99286.75;324610;30;2211;-81
2022/07/26 00:08:09;;;;;;;509.70;465.37;;;;;;;26.58;57.70;99288.75;323816;30;1229;-80
2022/07/26 00:08:19;;;;;;;512.97;467.90;;;;;;;26.49;57.50;99289.78;324502;30;1402;-80
2022/07/26 00:08:30;;;;;;;518.13;473.05;;;;;;;26.44;57.91;99295.66;320829;30;2263;-80
2022/07/26 00:08:40;;;;;;;520.87;475.87;;;;;;;26.41;58.05;99281.78;318243;30;2240;-80
2022/07/26 00:08:51;;;;;;;517.78;472.83;;;;;;;26.40;57.90;99285.47;319895;30;1249;-80
2022/07/26 00:09:01;;;;;;;519.73;474.77;;;;;;;26.37;57.96;99292.03;321638;30;1678;-80
2022/07/26 00:09:12;;;;;;;525.42;480.38;;;;;;;26.36;58.38;99290.34;321535;30;1920;-80
2022/07/26 00:09:22;;;;;;;533.13;487.93;;;;;;;26.36;58.14;99286.84;318868;31;1218;-81
2022/07/26 00:09:33;;;;;;;537.22;491.73;;;;;;;26.35;58.22;99285.16;320557;30;2397;-81
2022/07/26 00:09:43;;;;;;;534.87;489.13;;;;;;;26.36;58.36;99289.50;316748;30;3107;-80
2022/07/26 00:09:54;;;;;;;527.87;482.17;;;;;;;26.38;58.17;99285.66;315575;31;3221;-80
2022/07/26 00:10:05;;;;;;;524.88;479.13;;;;;;;26.40;58.21;99285.47;314049;31;1322;-79
2022/07/26 00:10:16;;;;;;;527.40;481.80;;;;;;;26.41;57.88;99287.16;315094;31;3740;-80
2022/07/26 00:10:26;;;;;;;531.17;485.53;;;;;;;26.41;57.64;99279.94;312325;31;3795;-80
2022/07/26 00:10:41;;;;;;;538.30;492.48;;;;;;;26.41;58.06;99292.53;309988;31;780;-81
2022/07/26 00:10:52;;;;;;;537.45;491.85;;;;;;;26.39;58.22;99283.81;309231;32;1046;-81
2022/07/26 00:11:03;;;;;;;536.90;491.42;;;;;;;26.42;58.36;99286.16;307165;31;2911;-81
2022/07/26 00:11:14;;;;;;;534.17;488.77;;;;;;;26.39;58.30;99284.66;305203;32;2306;-81
2022/07/26 00:11:25;;;;;;;535.35;489.70;;;;;;;26.40;58.14;99288.16;305695;32;2617;-81
2022/07/26 00:11:36;;;;;;;533.35;487.70;;;;;;;26.39;58.13;99286.50;303480;32;1800;-80
2022/07/26 00:11:46;;;;;;;537.90;491.83;;;;;;;26.41;58.23;99290.69;301177;32;3337;-80
2022/07/26 00:11:57;;;;;;;536.13;490.27;;;;;;;26.44;57.88;99282.25;299265;32;4729;-80
2022/07/26 00:12:08;;;;;;;538.10;492.33;;;;;;;26.47;58.06;99281.06;297125;33;1262;-80
2022/07/26 00:12:18;;;;;;;536.33;490.85;;;;;;;26.49;57.95;99284.41;295059;33;1400;-80
2022/07/26 00:12:29;;;;;;;533.63;488.05;;;;;;;26.52;57.72;99284.06;292973;33;5820;-80
2022/07/26 00:12:39;;;;;;;525.40;479.87;;;;;;;26.54;57.56;99284.75;289660;33;6315;-80
2022/07/26 00:12:50;;;;;;;525.63;480.00;;;;;;;26.57;57.70;99286.25;286668;34;1340;-81
2022/07/26 00:13:00;;;;;;;530.47;484.70;;;;;;;26.58;57.42;99288.75;282731;34;4386;-81
2022/07/26 00:13:10;;;;;;;536.97;491.08;;;;;;;26.49;57.71;99282.56;284281;33;3762;-80
2022/07/26 00:13:23;;;;;;;538.93;492.97;;;;;;;26.49;57.84;99289.78;288940;34;1322;-80
2022/07/26 00:13:33;;;;;;;532.50;486.70;;;;;;;26.49;58.00;99289.78;284856;34;1603;-80
2022/07/26 00:13:44;;;;;;;531.70;485.97;;;;;;;26.48;57.93;99288.94;283979;34;4607;-80
2022/07/26 00:13:54;;;;;;;525.60;480.43;;;;;;;26.49;57.67;99289.78;282583;34;5584;-80
2022/07/26 00:14:05;;;;;;;525.97;480.83;;;;;;;26.52;57.92;99284.06;278871;35;917;-80
2022/07/26 00:14:15;;;;;;;521.75;476.75;;;;;;;26.54;57.84;99290.13;277680;35;6752;-80
2022/07/26 00:14:26;;;;;;;524.37;479.07;;;;;;;26.57;57.63;99287.09;274826;35;7310;-80
2022/07/26 00:16:00;;;;;;;465.78;422.09;;;;;;;26.58;57.29;99293.28;2504589;27;20504;-81
2022/07/26 00:16:10;;;;;;;492.60;448.33;;;;;;;26.52;57.59;99284.91;351758;28;1416;-81
2022/07/26 00:16:20;;;;;;;499.33;454.60;;;;;;;26.49;57.82;99289.78;349434;28;1322;-81
2022/07/26 00:16:31;;;;;;;504.00;458.80;;;;;;;26.47;57.46;99289.13;351081;28;1198;-81
2022/07/26 00:16:42;;;;;;;504.23;459.10;;;;;;;26.46;57.77;99290.13;350946;28;1266;-82
2022/07/26 00:16:52;;;;;;;504.33;459.02;;;;;;;26.47;57.91;99291.81;351123;28;1401;-81
2022/07/26 00:17:03;;;;;;;508.43;463.27;;;;;;;26.44;57.97;99287.63;348706;28;1279;-82
2022/07/26 00:17:13;;;;;;;505.52;460.58;;;;;;;26.45;57.90;99288.47;349129;28;1215;-79
2022/07/26 00:17:25;;;;;;;506.97;462.30;;;;;;;26.43;58.25;99290.47;348902;28;1345;-79
2022/07/26 00:17:36;;;;;;;506.27;461.83;;;;;;;26.40;58.01;99290.84;347656;28;1270;-81
2022/07/26 00:17:46;;;;;;;513.05;468.27;;;;;;;26.38;58.10;99290.19;349246;28;882;-81
2022/07/26 00:17:57;;;;;;;514.07;469.07;;;;;;;26.37;58.28;99285.81;348972;28;1183;-80
2022/07/26 00:18:07;;;;;;;518.20;472.97;;;;;;;26.37;57.87;99291.19;347805;28;1224;-81
2022/07/26 00:18:18;;;;;;;521.75;476.33;;;;;;;26.30;58.33;99284.78;350441;28;1384;-81
2022/07/26 00:18:28;;;;;;;530.23;484.33;;;;;;;26.27;58.11;99290.50;349213;28;1191;-80
2022/07/26 00:18:39;;;;;;;533.35;487.33;;;;;;;26.30;58.16;99290.16;345865;28;1228;-80
2022/07/26 00:18:49;;;;;;;522.37;476.80;;;;;;;26.28;58.21;99286.81;346299;28;1327;-80
2022/07/26 00:18:59;;;;;;;519.05;473.75;;;;;;;26.29;58.12;99288.50;349164;28;1251;-80
2022/07/26 00:19:10;;;;;;;513.93;468.90;;;;;;;26.27;58.17;99290.50;348289;28;1151;-80
2022/07/26 00:19:20;;;;;;;515.25;470.40;;;;;;;26.28;58.53;99284.97;349278;28;1288;-80
2022/07/26 00:19:31;;;;;;;515.07;470.43;;;;;;;26.30;58.44;99280.28;349971;28;888;-81
2022/07/26 00:19:41;;;;;;;519.10;474.35;;;;;;;26.33;58.17;99289.84;348092;28;1184;-79
2022/07/26 00:19:52;;;;;;;528.87;483.73;;;;;;;26.37;57.98;99288.50;349016;28;1160;-81
2022/07/26 00:20:03;;;;;;;527.73;482.57;;;;;;;26.38;58.06;99284.81;347729;28;928;-81
2022/07/26 00:20:13;;;;;;;524.90;479.73;;;;;;;26.37;57.96;99288.50;347446;28;1429;-80
2022/07/26 00:20:23;;;;;;;519.43;474.20;;;;;;;26.40;58.28;99286.31;348248;28;1291;-80
2022/07/26 00:20:34;;;;;;;518.60;473.20;;;;;;;26.40;58.21;99291.69;350582;28;1216;-80
2022/07/26 00:20:45;;;;;;;521.80;476.38;;;;;;;26.43;58.18;99282.41;347601;28;1340;-81
2022/07/26 00:20:56;;;;;;;528.30;482.80;;;;;;;26.42;58.44;99286.16;347525;28;1406;-81
2022/07/26 00:21:06;;;;;;;528.75;483.25;;;;;;;26.38;58.35;99284.81;346892;28;1219;-81
2022/07/26 00:21:17;;;;;;;520.13;474.97;;;;;;;26.36;58.18;99289.50;344976;28;1313;-80
2022/07/26 00:21:29;;;;;;;517.75;472.77;;;;;;;26.35;58.01;99285.16;346184;28;1374;-81
2022/07/26 00:21:39;;;;;;;508.73;464.35;;;;;;;26.31;58.72;99290.03;347101;28;1560;-80
2022/07/26 00:22:32;;;;;;;512.90;468.43;;;;;;;26.32;58.36;99288.19;342273;28;1223;-80
2022/07/26 00:22:37;;;;;;;518.67;473.88;;;;;;;26.34;58.37;99292.38;339991;29;1333;-80
2022/07/26 00:22:48;;;;;;;519.80;474.85;;;;;;;26.26;58.83;99289.66;338157;29;1327;-81
2022/07/26 00:22:58;;;;;;;514.88;469.95;;;;;;;26.18;58.62;99285.16;339525;29;1136;-82
2022/07/26 00:23:09;;;;;;;523.23;477.83;;;;;;;26.14;58.81;99281.13;341173;29;1278;-81
2022/07/26 00:23:19;;;;;;;525.45;480.00;;;;;;;26.10;58.76;99279.78;342164;28;1296;-80
2022/07/26 00:23:30;;;;;;;528.97;483.33;;;;;;;26.09;59.04;99290.69;338411;29;1276;-81
2022/07/26 00:23:40;;;;;;;527.78;482.33;;;;;;;26.03;59.11;99284.16;338511;29;1330;-82
2022/07/26 00:23:50;;;;;;;530.53;484.83;;;;;;;26.04;59.27;99285.00;339344;29;1322;-81
2022/07/26 00:24:02;;;;;;;539.20;493.63;;;;;;;26.04;59.27;99291.19;337088;29;1228;-80
2022/07/26 00:24:13;;;;;;;544.30;498.42;;;;;;;26.05;59.27;99281.31;337869;29;1517;-80
2022/07/26 00:24:23;;;;;;;546.33;500.48;;;;;;;26.08;59.14;99286.34;338164;29;1425;-80
2022/07/26 00:24:33;;;;;;;551.93;505.90;;;;;;;26.08;59.15;99286.34;333841;29;1452;-80
2022/07/26 00:24:44;;;;;;;548.05;502.35;;;;;;;26.09;59.16;99280.81;332081;29;1081;-80
2022/07/26 00:24:54;;;;;;;552.00;506.00;;;;;;;26.10;58.95;99279.78;336420;29;1926;-80
2022/07/26 00:25:06;;;;;;;547.30;501.30;;;;;;;26.09;59.19;99288.84;336156;29;1186;-80
2022/07/26 00:25:16;;;;;;;547.50;501.60;;;;;;;26.08;59.28;99281.81;337437;29;1513;-81
2022/07/26 00:25:27;;;;;;;546.78;501.05;;;;;;;26.06;59.06;99282.97;339528;29;1318;-80
2022/07/26 00:25:37;;;;;;;543.33;497.63;;;;;;;26.07;59.21;99290.03;334324;29;1331;-81
2022/07/26 00:25:48;;;;;;;541.42;495.80;;;;;;;26.06;59.15;99286.50;332301;29;1248;-81
2022/07/26 00:25:58;;;;;;;543.17;497.53;;;;;;;26.06;59.18;99286.50;338085;29;1459;-81
2022/07/26 00:26:09;;;;;;;547.50;501.60;;;;;;;26.06;58.98;99282.97;335288;29;1301;-81
2022/07/26 00:26:19;;;;;;;552.83;506.53;;;;;;;26.11;59.22;99286.84;333367;29;1799;-79
2022/07/26 00:26:29;;;;;;;549.67;503.33;;;;;;;26.10;58.95;99287.84;329368;30;1452;-79
2022/07/26 00:26:40;;;;;;;550.47;504.13;;;;;;;26.15;58.79;99285.50;335018;29;2531;-80
2022/07/26 00:26:50;;;;;;;547.47;501.37;;;;;;;26.13;58.81;99284.81;335453;29;2231;-81
2022/07/26 00:27:01;;;;;;;550.72;504.88;;;;;;;26.09;58.89;99283.47;332007;29;1350;-80
2022/07/26 00:27:11;;;;;;;556.97;510.90;;;;;;;26.05;59.16;99282.16;331460;29;1570;-81
2022/07/26 00:27:22;;;;;;;561.45;515.05;;;;;;;26.04;59.08;99274.25;330243;29;1308;-80
2022/07/26 00:27:35;;;;;;;567.50;520.60;;;;;;;26.03;59.19;99284.16;335947;29;1274;-81
2022/07/26 00:27:45;;;;;;;567.28;520.72;;;;;;;26.01;59.25;99285.34;333439;29;1463;-81
2022/07/26 00:27:55;;;;;;;561.60;515.50;;;;;;;25.99;59.18;99290.91;330395;29;1573;-80
2022/07/26 00:28:06;;;;;;;563.55;517.58;;;;;;;26.02;59.15;99282.47;328938;29;1719;-81
2022/07/26 00:28:16;;;;;;;559.37;513.57;;;;;;;26.06;59.17;99286.50;331598;29;1405;-80
2022/07/26 00:28:27;;;;;;;563.63;517.67;;;;;;;26.07;59.01;99279.28;325354;30;1922;-79
2022/07/26 00:28:37;;;;;;;562.40;516.70;;;;;;;26.06;59.06;99289.19;325723;29;2523;-81
2022/07/26 00:28:48;;;;;;;567.67;521.40;;;;;;;26.06;59.23;99283.81;328253;30;1400;-81
2022/07/26 00:29:02;;;;;;;571.17;524.65;;;;;;;26.05;59.29;99282.16;326762;30;2608;-82
2022/07/26 00:29:13;;;;;;;576.35;529.67;;;;;;;26.04;59.15;99283.16;324208;30;2424;-81
2022/07/26 00:29:24;;;;;;;575.17;528.55;;;;;;;26.05;59.38;99279.47;324607;30;1967;-79
2022/07/26 00:29:34;;;;;;;574.63;528.13;;;;;;;26.08;58.98;99286.34;323120;30;1348;-80
2022/07/26 00:29:44;;;;;;;569.30;522.97;;;;;;;26.06;59.39;99277.63;322995;30;895;-81
2022/07/26 00:29:55;;;;;;;569.53;523.17;;;;;;;26.00;59.21;99279.13;320867;30;1683;-80
2022/07/26 00:30:07;;;;;;;560.08;513.78;;;;;;;26.05;59.04;99287.50;317825;30;2048;-82
2022/07/26 00:30:17;;;;;;;561.92;515.60;;;;;;;26.06;58.93;99286.50;319182;30;1396;-78
2022/07/26 00:30:28;;;;;;;566.15;519.75;;;;;;;26.06;59.36;99289.19;318632;30;2189;-81
2022/07/26 00:30:38;;;;;;;567.40;521.00;;;;;;;26.06;59.19;99286.50;313446;31;2597;-80
2022/07/26 00:30:49;;;;;;;562.75;516.58;;;;;;;26.07;59.09;99288.19;309365;31;2987;-79
2022/07/26 00:31:00;;;;;;;563.13;516.57;;;;;;;26.04;59.16;99291.19;306919;32;1470;-81
2022/07/26 00:31:11;;;;;;;570.90;523.80;;;;;;;26.01;59.25;99291.53;313592;31;3383;-80
2022/07/26 00:31:21;;;;;;;572.08;524.97;;;;;;;26.02;58.94;99282.47;313158;31;2552;-80
2022/07/26 00:31:33;;;;;;;578.43;531.33;;;;;;;26.04;59.08;99285.84;309229;31;1203;-80
2022/07/26 00:31:44;;;;;;;580.00;533.30;;;;;;;26.04;58.93;99285.00;305624;32;1282;-80
2022/07/26 00:31:54;;;;;;;574.87;528.30;;;;;;;26.02;58.85;99282.47;306527;31;1481;-80
2022/07/26 00:32:05;;;;;;;572.83;526.50;;;;;;;25.97;59.06;99290.22;306413;31;2255;-81
2022/07/26 00:32:16;;;;;;;572.75;526.38;;;;;;;25.94;59.55;99285.19;302379;32;1223;-80
2022/07/26 00:32:26;;;;;;;582.47;535.47;;;;;;;25.94;59.34;99285.19;299316;32;3058;-80
2022/07/26 00:32:38;;;;;;;583.60;536.43;;;;;;;25.99;59.23;99288.22;295347;32;3904;-80
2022/07/26 00:32:48;;;;;;;580.00;532.90;;;;;;;26.01;59.45;99283.50;298249;33;1388;-81
2022/07/26 00:32:59;;;;;;;575.00;528.37;;;;;;;26.04;59.21;99279.63;290943;34;792;-81
2022/07/26 00:33:12;;;;;;;576.72;530.15;;;;;;;26.08;58.80;99284.50;287056;33;5037;-80
2022/07/26 00:33:24;;;;;;;578.20;531.65;;;;;;;26.11;59.12;99292.19;284334;34;4107;-80
2022/07/26 00:33:34;;;;;;;575.20;528.67;;;;;;;26.13;58.69;99283.97;280873;34;3302;-79
2022/07/26 00:33:45;;;;;;;571.63;525.20;;;;;;;26.13;58.64;99287.50;279276;35;1542;-80
2022/07/26 00:33:55;;;;;;;565.45;519.15;;;;;;;26.14;58.66;99286.50;279616;35;3220;-80
2022/07/26 00:34:06;;;;;;;561.67;515.30;;;;;;;26.16;58.90;99289.84;277147;35;2784;-80
2022/07/26 00:34:16;;;;;;;552.15;505.88;;;;;;;26.16;58.75;99283.66;272485;36;1351;-79
2022/07/26 00:34:26;;;;;;;561.80;515.00;;;;;;;26.15;58.65;99292.69;275230;35;3732;-80
2022/07/26 00:34:38;;;;;;;557.83;511.23;;;;;;;26.13;58.74;99289.34;273502;35;4446;-80
2022/07/26 00:34:50;;;;;;;565.22;518.78;;;;;;;26.12;59.09;99288.50;272390;36;6412;-80
2022/07/26 00:35:00;;;;;;;564.30;518.30;;;;;;;26.15;58.78;99281.97;267736;37;1338;-80
2022/07/26 00:35:11;;;;;;;570.33;524.20;;;;;;;26.13;58.75;99284.81;265060;36;7940;-80
2022/07/26 00:35:21;;;;;;;567.00;520.73;;;;;;;26.10;58.47;99279.78;262329;37;7142;-80
2022/07/26 00:35:32;;;;;;;566.45;519.95;;;;;;;26.13;58.92;99287.50;261779;37;1308;-79
2022/07/26 00:37:25;;;;;;;510.13;465.35;;;;;;;25.91;59.15;99282.84;2506497;27;20493;-81
2022/07/26 00:37:35;;;;;;;543.77;498.47;;;;;;;25.91;59.42;99285.53;353447;28;1560;-81
2022/07/26 00:37:46;;;;;;;543.13;497.83;;;;;;;25.90;59.37;99286.53;350688;28;901;-80
2022/07/26 00:37:57;;;;;;;544.77;499.23;;;;;;;25.90;59.50;99281.19;349331;28;780;-81
2022/07/26 00:38:07;;;;;;;545.13;499.55;;;;;;;25.93;59.55;99283.53;350948;28;1318;-81
2022/07/26 00:38:21;;;;;;;546.77;501.10;;;;;;;25.98;59.24;99283.84;351247;28;1026;-80
2022/07/26 00:38:31;;;;;;;549.70;504.15;;;;;;;26.04;59.24;99279.63;349479;28;1444;-81
2022/07/26 00:38:42;;;;;;;559.60;513.83;;;;;;;26.06;59.24;99283.81;348067;28;1323;-80
2022/07/26 00:38:52;;;;;;;559.15;513.45;;;;;;;26.08;59.03;99287.16;349142;28;1292;-79
2022/07/26 00:39:02;;;;;;;556.43;510.83;;;;;;;26.04;58.90;99280.47;348407;28;917;-82
2022/07/26 00:39:13;;;;;;;543.55;498.17;;;;;;;25.88;58.99;99280.50;349244;28;1347;-81
2022/07/26 00:39:23;;;;;;;549.27;503.53;;;;;;;25.79;59.75;99293.06;349633;28;1366;-80
2022/07/26 00:39:34;;;;;;;554.67;508.67;;;;;;;25.78;59.70;99278.00;349209;28;1074;-80
2022/07/26 00:39:44;;;;;;;567.57;521.27;;;;;;;25.76;59.53;99284.53;353216;28;1242;-81
2022/07/26 00:39:55;;;;;;;565.27;519.07;;;;;;;25.70;60.00;99285.19;350619;28;1314;-80
2022/07/26 00:40:06;;;;;;;574.90;528.40;;;;;;;25.65;60.09;99285.69;348051;28;937;-81
2022/07/26 00:40:16;;;;;;;582.10;535.50;;;;;;;25.63;59.84;99284.16;349274;28;1304;-81
2022/07/26 00:40:27;;;;;;;590.65;543.92;;;;;;;25.61;60.32;99283.47;349272;28;1279;-81
2022/07/26 00:40:37;;;;;;;589.47;542.70;;;;;;;25.57;60.29;99287.50;347790;28;1376;-81
2022/07/26 00:40:48;;;;;;;582.13;535.50;;;;;;;25.58;60.33;99283.81;349840;28;1222;-80
2022/07/26 00:40:58;;;;;;;590.83;543.97;;;;;;;25.62;60.45;99279.78;347716;28;1298;-81
2022/07/26 00:41:09;;;;;;;600.70;553.72;;;;;;;25.65;59.91;99284.84;349709;28;1264;-80
2022/07/26 00:41:19;;;;;;;610.70;563.60;;;;;;;25.72;60.14;99280.50;350660;28;1274;-80
2022/07/26 00:41:30;;;;;;;616.08;569.13;;;;;;;25.74;60.30;99283.84;348480;28;1543;-80
2022/07/26 00:41:41;;;;;;;623.17;575.97;;;;;;;25.76;59.84;99289.88;345075;28;1260;-80
2022/07/26 00:41:52;;;;;;;624.85;577.67;;;;;;;25.76;60.04;99282.69;349692;28;1366;-80
2022/07/26 00:42:02;;;;;;;627.50;580.10;;;;;;;25.80;59.87;99288.56;348966;28;1262;-80
2022/07/26 00:42:13;;;;;;;628.63;581.30;;;;;;;25.81;59.77;99292.91;346445;28;1336;-79
2022/07/26 00:42:23;;;;;;;633.60;586.10;;;;;;;25.82;59.91;99289.22;346515;28;1248;-80
2022/07/26 00:42:33;;;;;;;636.70;589.20;;;;;;;25.85;59.78;99287.03;346216;28;1469;-80
2022/07/26 00:42:44;;;;;;;641.22;593.63;;;;;;;25.86;59.97;99282.53;344142;28;1229;-80
2022/07/26 00:42:54;;;;;;;641.07;593.47;;;;;;;25.87;59.77;99294.91;346230;28;1194;-80
2022/07/26 00:43:05;;;;;;;634.63;587.20;;;;;;;25.89;59.99;99287.53;347869;28;1537;-80
2022/07/26 00:43:16;;;;;;;632.87;585.53;;;;;;;25.87;59.81;99284.19;346385;28;1109;-81
2022/07/26 00:43:27;;;;;;;636.83;589.65;;;;;;;25.85;59.87;99296.94;348276;28;943;-80
2022/07/26 00:43:37;;;;;;;642.90;595.57;;;;;;;25.83;59.76;99293.56;347430;28;1329;-80
2022/07/26 00:43:57;;;;;;;647.53;599.83;;;;;;;25.77;59.76;99287.03;347741;28;1326;-80
2022/07/26 00:44:08;;;;;;;645.90;598.40;;;;;;;25.78;59.94;99293.25;343594;28;1523;-81
2022/07/26 00:44:18;;;;;;;648.63;601.13;;;;;;;25.79;60.04;99286.88;343561;28;1197;-81
2022/07/26 00:44:38;;;;;;;652.00;604.20;;;;;;;25.74;60.03;99286.53;342686;28;1224;-79
2022/07/26 00:44:49;;;;;;;642.78;595.17;;;;;;;25.76;59.98;99287.22;342029;28;1395;-80
2022/07/26 00:44:59;;;;;;;644.47;596.83;;;;;;;25.78;59.72;99285.19;342387;28;1320;-80
2022/07/26 00:45:10;;;;;;;639.60;592.08;;;;;;;25.78;59.87;99285.19;337002;29;1215;-80
2022/07/26 00:45:20;;;;;;;637.45;589.65;;;;;;;25.81;59.77;99295.59;340908;28;1346;-82
2022/07/26 00:45:32;;;;;;;640.37;592.43;;;;;;;25.75;59.98;99285.53;340139;28;1443;-80
2022/07/26 00:45:42;;;;;;;638.47;590.58;;;;;;;25.69;59.73;99286.19;340962;29;1315;-81
2022/07/26 00:45:53;;;;;;;645.50;597.20;;;;;;;25.66;60.03;99283.84;341709;28;1476;-80
2022/07/26 00:46:04;;;;;;;646.00;597.75;;;;;;;25.63;60.37;99286.81;342500;28;1698;-80
2022/07/26 00:46:14;;;;;;;652.33;603.93;;;;;;;25.59;60.49;99283.66;338299;29;1377;-81
2022/07/26 00:46:25;;;;;;;644.88;597.00;;;;;;;25.60;60.34;99289.84;336212;29;1605;-81
2022/07/26 00:46:36;;;;;;;647.43;599.57;;;;;;;25.58;60.40;99289.16;336775;29;1651;-80
2022/07/26 00:46:46;;;;;;;661.70;613.42;;;;;;;25.59;60.45;99285.47;335730;29;1385;-81
2022/07/26 00:46:57;;;;;;;671.77;623.07;;;;;;;25.62;60.05;99285.16;334398;29;1207;-80
2022/07/26 00:47:07;;;;;;;671.63;622.65;;;;;;;25.66;60.21;99289.22;335899;29;1289;-81
2022/07/26 00:47:19;;;;;;;667.73;618.80;;;;;;;25.65;60.41;99279.50;332994;29;1351;-81
2022/07/26 00:47:29;;;;;;;667.70;619.08;;;;;;;25.69;60.05;99281.66;333726;29;1779;-81
2022/07/26 00:47:40;;;;;;;661.57;613.07;;;;;;;25.73;60.28;99284.84;330967;29;1237;-80
2022/07/26 00:47:51;;;;;;;660.22;611.75;;;;;;;25.78;59.78;99286.03;331419;29;1922;-81
2022/07/26 00:48:02;;;;;;;658.33;610.03;;;;;;;25.83;60.61;99282.84;330642;29;1586;-80
2022/07/26 00:48:12;;;;;;;656.03;608.00;;;;;;;25.83;59.59;99286.38;328467;30;1218;-80
2022/07/26 00:48:23;;;;;;;644.57;596.73;;;;;;;25.91;59.57;99290.91;324733;30;2228;-81
2022/07/26 00:48:33;;;;;;;642.63;594.95;;;;;;;25.91;59.37;99285.53;323989;30;1667;-81
2022/07/26 00:48:44;;;;;;;645.00;597.07;;;;;;;25.89;59.62;99287.53;321622;30;1212;-81
2022/07/26 00:48:54;;;;;;;647.20;599.30;;;;;;;25.90;59.85;99288.38;323919;30;1251;-81
2022/07/26 00:49:05;;;;;;;645.27;597.27;;;;;;;25.85;59.51;99287.03;326100;30;1283;-81
2022/07/26 00:49:16;;;;;;;637.63;589.83;;;;;;;25.89;59.54;99286.72;324230;30;1611;-81
2022/07/26 00:49:27;;;;;;;632.78;585.17;;;;;;;25.91;59.58;99284.69;320128;30;1229;-79
2022/07/26 00:49:37;;;;;;;629.08;581.40;;;;;;;25.87;59.67;99270.78;322698;30;1736;-81
2022/07/26 00:49:48;;;;;;;630.90;583.20;;;;;;;25.91;59.32;99277.50;321865;30;2334;-80
2022/07/26 00:49:58;;;;;;;627.58;579.88;;;;;;;25.95;59.43;99286.88;318859;31;1238;-80
2022/07/26 00:50:14;;;;;;;624.20;576.50;;;;;;;25.98;59.19;99278.50;318077;30;2713;-80
2022/07/26 00:50:25;;;;;;;627.10;579.72;;;;;;;26.01;58.95;99275.44;317035;31;1333;-80
2022/07/26 00:50:35;;;;;;;617.03;569.93;;;;;;;26.04;59.44;99285.84;315921;31;2385;-80
2022/07/26 00:50:46;;;;;;;609.97;563.05;;;;;;;26.02;59.25;99287.84;315049;31;1323;-80
2022/07/26 00:50:56;;;;;;;595.77;549.07;;;;;;;25.97;59.06;99278.66;314268;31;826;-80
2022/07/26 00:51:07;;;;;;;596.55;549.90;;;;;;;25.93;59.39;99278.16;317167;31;1100;-79
2022/07/26 00:51:19;;;;;;;595.03;548.23;;;;;;;25.95;59.27;99283.34;311999;31;1853;-79
2022/07/26 00:51:30;;;;;;;602.83;555.67;;;;;;;25.93;59.36;99278.16;309572;31;2197;-80
2022/07/26 00:51:40;;;;;;;601.88;554.53;;;;;;;25.91;59.37;99280.16;309707;31;1277;-80
2022/07/26 00:51:51;;;;;;;600.78;553.55;;;;;;;25.91;59.47;99274.81;305988;31;2375;-80
2022/07/26 00:52:03;;;;;;;597.00;549.97;;;;;;;25.92;59.39;99281.00;303013;32;2792;-82
2022/07/26 00:52:14;;;;;;;596.90;549.78;;;;;;;25.92;59.36;99281.00;303511;32;936;-79
2022/07/26 00:52:24;;;;;;;594.87;547.73;;;;;;;25.95;59.42;99275.31;303290;32;1213;-80
2022/07/26 00:52:35;;;;;;;599.38;552.17;;;;;;;25.97;59.45;99275.97;304514;32;2791;-80
2022/07/26 00:52:47;;;;;;;597.43;550.27;;;;;;;25.97;59.17;99274.13;304024;32;2361;-80
2022/07/26 00:52:57;;;;;;;596.88;549.80;;;;;;;25.96;59.04;99271.63;304809;32;975;-79
2022/07/26 00:53:07;;;;;;;597.17;550.07;;;;;;;25.96;59.36;99268.94;301140;32;1517;-80
2022/07/26 00:53:19;;;;;;;593.70;546.80;;;;;;;25.96;59.15;99277.81;300352;32;1579;-81
2022/07/26 00:53:30;;;;;;;593.20;546.45;;;;;;;25.94;59.38;99274.47;298172;32;2276;-81